Kamloops Airport
CYKA : rendu visible

Aérodrome :











RETROUVEZ-NOUS SUR...

 
LOGIN :

S'inscrire | Disclaimer

   EN    FR    IT 

 









Légende :    VFR   VFR Marginal   IFR   IFR Intensif   IFR Très Intensif
Visi : 
Plafond : 
>= 8 km
>= 3000ft
5 à 8 km
1000 à 3000 ft
1500m à 5 km
500 à 1000 ft
800 à 1500m
200 à 500 ft
< 800m
< 200 ft
Symboles :   Orages  Brouillard  Fortes neiges  Fortes précipitations  Vent > 20 kt






- Altitude de l'aérodrome : 1133 ft
- Code IATA : YKA


CYKA - Kamloops

DERNIER METAR :
  • 170900Z 10014G21KT 40SM FEW030 BKN090 OVC250 06/03 A2995 RMK SC1AC6CI2 SC TR SLP155

METARs EXPIRÉS :
  • 170800Z 09017G26KT 40SM FEW030 OVC087 06/03 A2996 RMK SC1AC8 SC TR SLP159
  • 170700Z 11020G29KT 40SM FEW030 BKN082 OVC240 06/03 A2999 RMK SC1AC7CI1 SC TR SLP167

TAF TAF CYKA
Valide du 17 à 07h jusqu'au 17 à 19h UTC


170638Z 1707/1719 11020G30KT P6SM SCT020 BKN080 OVC240
TEMPO 1707/1719 P6SM -RA
BECMG 1713/1715 09012KT RMK NXT FCST BY 171300Z



MET'MAP, la Météo Aéronautique d'un coup d'oeil ! - Copyright ORBIFLY Décembre 2007 - Disclaimer

ORBIFLY MET'MAP TEAM :

Programmation & Développement : Alexandra Zaïnal
Conception & Développement : Baudouin d'Aumeries
Co-Programmation & Développement : Marc-Olivier Méhu
Soutien technique & logistique : Manuel Goepfert

Contact : metmap@orbifly.com




SOURCES & CREDITS :

   NOAA       Earth
Advisory